createdAt,value
2023-01-13T00:01:23.198Z,47.50
2023-01-13T00:04:04.660Z,44.33
2023-01-13T00:09:23.707Z,40.65
2023-01-13T00:14:41.970Z,37.00
2023-01-13T00:21:18.196Z,54.25
2023-01-13T00:24:03.554Z,40.40
2023-01-13T00:26:45.691Z,42.95
2023-01-13T00:29:18.657Z,40.63
2023-01-13T00:35:09.736Z,52.58
2023-01-13T00:37:49.024Z,54.28
2023-01-13T00:40:34.275Z,56.70
2023-01-13T00:46:10.466Z,44.90
2023-01-13T00:48:39.113Z,44.13
2023-01-13T00:51:11.653Z,51.17
2023-01-13T00:53:57.119Z,52.05
2023-01-13T00:56:50.801Z,48.80
2023-01-13T00:59:36.497Z,42.28
2023-01-13T01:02:07.951Z,44.30
2023-01-13T01:04:40.668Z,45.95
2023-01-13T01:07:13.883Z,49.05
2023-01-13T01:09:53.387Z,52.75
2023-01-13T01:12:25.455Z,50.50
2023-01-13T01:15:03.395Z,60.25
2023-01-13T01:17:37.665Z,43.08
2023-01-13T01:20:08.185Z,40.47
2023-01-13T01:22:42.508Z,55.95
2023-01-13T01:25:17.742Z,55.47
2023-01-13T01:27:46.712Z,51.88
2023-01-13T01:30:21.050Z,48.47
2023-01-13T01:32:48.046Z,45.92
2023-01-13T01:35:17.304Z,43.60
2023-01-13T01:37:45.598Z,46.63
2023-01-13T01:40:15.018Z,46.88
2023-01-13T01:42:58.465Z,50.53
2023-01-13T01:45:31.702Z,47.00
2023-01-13T01:48:16.514Z,47.30
2023-01-13T01:51:00.690Z,36.40
2023-01-13T01:53:35.933Z,47.58
2023-01-13T01:56:16.429Z,45.60
2023-01-13T02:02:26.506Z,42.58
2023-01-13T02:05:05.634Z,50.88
2023-01-13T02:10:31.943Z,52.80
2023-01-13T02:13:13.067Z,60.40
2023-01-13T02:16:04.870Z,54.15
2023-01-13T02:18:58.129Z,44.58
2023-01-13T02:21:44.049Z,45.75
2023-01-13T02:24:58.176Z,41.83
2023-01-13T02:27:50.722Z,52.97
2023-01-13T02:30:30.052Z,46.67
2023-01-13T02:33:17.734Z,49.47
2023-01-13T02:36:04.676Z,60.58
2023-01-13T02:38:38.613Z,58.70
2023-01-13T02:41:14.207Z,46.88
2023-01-13T02:43:46.113Z,56.13
2023-01-13T02:46:25.148Z,49.42
2023-01-13T02:48:57.731Z,52.83
2023-01-13T02:51:30.433Z,58.88
2023-01-13T02:54:07.321Z,53.53
2023-01-13T02:56:42.421Z,47.20
2023-01-13T02:59:12.679Z,59.53
2023-01-13T03:02:08.408Z,44.78
2023-01-13T03:04:53.563Z,45.85
2023-01-13T03:08:10.255Z,41.60
2023-01-13T03:11:05.538Z,36.30
2023-01-13T03:14:18.806Z,47.67
2023-01-13T03:17:07.871Z,36.38
2023-01-13T03:19:48.199Z,43.05
2023-01-13T03:22:27.081Z,38.13
2023-01-13T03:25:02.824Z,41.95
2023-01-13T03:27:44.641Z,45.58
2023-01-13T03:30:38.899Z,42.10
2023-01-13T03:33:16.842Z,45.17
2023-01-13T03:35:52.699Z,48.88
2023-01-13T03:38:28.595Z,38.28
2023-01-13T03:41:06.247Z,44.00
2023-01-13T03:43:41.353Z,52.25
2023-01-13T03:46:21.897Z,51.88
2023-01-13T03:49:10.340Z,44.65
2023-01-13T03:51:44.961Z,47.15
2023-01-13T03:54:14.436Z,50.13
2023-01-13T03:56:47.483Z,48.33
2023-01-13T03:59:19.874Z,47.63
2023-01-13T04:02:07.246Z,44.15
2023-01-13T04:04:43.957Z,53.65
2023-01-13T04:07:22.217Z,36.38
2023-01-13T04:09:55.776Z,51.40
2023-01-13T04:15:56.813Z,46.85
2023-01-13T04:18:31.336Z,47.13
2023-01-13T04:21:28.411Z,50.35
2023-01-13T04:24:02.350Z,47.95
2023-01-13T04:26:35.136Z,55.22
2023-01-13T04:29:10.060Z,49.17
2023-01-13T04:32:00.514Z,45.53
2023-01-13T04:34:32.545Z,48.85
2023-01-13T04:37:02.434Z,45.72
2023-01-13T04:39:39.448Z,38.55
2023-01-13T04:42:13.953Z,46.10
2023-01-13T04:44:51.991Z,37.05
2023-01-13T04:47:21.743Z,34.83
2023-01-13T04:50:14.905Z,46.28
2023-01-13T04:52:56.563Z,43.95
2023-01-13T04:55:29.761Z,45.03
2023-01-13T04:58:10.181Z,43.10
2023-01-13T05:00:39.878Z,38.13
2023-01-13T05:03:08.389Z,30.13
2023-01-13T05:05:37.693Z,25.48
2023-01-13T05:08:06.391Z,34.03
2023-01-13T05:10:39.290Z,37.60
2023-01-13T05:13:09.565Z,33.08
2023-01-13T05:15:36.551Z,39.45
2023-01-13T05:18:04.115Z,33.92
2023-01-13T05:20:31.039Z,37.08
2023-01-13T05:22:58.126Z,28.50
2023-01-13T05:25:29.597Z,39.47
2023-01-13T05:27:58.413Z,38.30
2023-01-13T05:30:29.286Z,35.55
2023-01-13T05:32:59.139Z,26.02
2023-01-13T05:35:29.254Z,27.48
2023-01-13T05:37:56.238Z,34.22
2023-01-13T05:40:35.489Z,27.77
2023-01-13T05:43:04.061Z,30.63
2023-01-13T05:45:31.349Z,30.08
2023-01-13T05:47:58.892Z,24.40
2023-01-13T05:50:25.679Z,31.10
2023-01-13T05:53:01.025Z,27.42
2023-01-13T05:55:29.440Z,26.95
2023-01-13T05:57:59.302Z,35.58
2023-01-13T06:00:26.396Z,30.25
2023-01-13T06:02:53.263Z,37.58
2023-01-13T06:05:20.316Z,27.88
2023-01-13T06:07:47.198Z,34.78
2023-01-13T06:10:14.003Z,31.83
2023-01-13T06:12:42.809Z,29.65
2023-01-13T06:15:10.438Z,26.67
2023-01-13T06:17:37.718Z,34.80
2023-01-13T06:20:05.628Z,30.67
2023-01-13T06:22:37.864Z,33.22
2023-01-13T06:25:08.098Z,30.27
2023-01-13T06:27:34.901Z,29.92
2023-01-13T06:30:03.452Z,34.83
2023-01-13T06:32:45.214Z,37.55
2023-01-13T06:35:21.805Z,24.70
2023-01-13T06:37:51.669Z,24.33
2023-01-13T06:40:19.144Z,26.50
2023-01-13T06:42:46.319Z,30.23
2023-01-13T06:45:17.230Z,24.60
2023-01-13T06:47:44.436Z,35.13
2023-01-13T06:50:22.411Z,36.08
2023-01-13T06:52:59.536Z,33.08
2023-01-13T06:55:34.136Z,24.08
2023-01-13T06:58:07.902Z,32.65
2023-01-13T07:01:07.625Z,40.20
2023-01-13T07:03:40.993Z,27.73
2023-01-13T07:06:42.341Z,32.15
2023-01-13T07:09:09.212Z,28.35
2023-01-13T07:11:36.079Z,40.20
2023-01-13T07:14:02.974Z,35.00
2023-01-13T07:16:33.755Z,28.02
2023-01-13T07:19:00.787Z,38.63
2023-01-13T07:21:27.747Z,28.50
2023-01-13T07:23:57.628Z,32.58
2023-01-13T07:26:24.601Z,33.78
2023-01-13T07:28:51.940Z,35.38
2023-01-13T07:31:20.953Z,31.25
2023-01-13T07:33:49.411Z,29.08
2023-01-13T07:36:16.456Z,36.35
2023-01-13T07:38:43.449Z,38.30
2023-01-13T07:41:19.965Z,43.35
2023-01-13T07:43:50.603Z,34.83
2023-01-13T07:46:18.589Z,35.92
2023-01-13T07:48:47.253Z,44.35
2023-01-13T07:51:16.092Z,37.85
2023-01-13T07:53:47.376Z,35.30
2023-01-13T07:56:14.203Z,37.00
2023-01-13T07:58:41.101Z,38.45
2023-01-13T08:01:08.764Z,37.35
2023-01-13T08:03:41.494Z,40.65
2023-01-13T08:06:13.047Z,48.95
2023-01-13T08:09:16.335Z,37.90
2023-01-13T08:12:27.337Z,37.92
2023-01-13T08:15:17.061Z,32.58
2023-01-13T08:18:57.313Z,37.33
2023-01-13T08:24:21.604Z,41.38
2023-01-13T08:30:44.850Z,31.58
2023-01-13T08:33:13.338Z,24.17
2023-01-13T08:35:41.647Z,31.98
2023-01-13T08:38:11.230Z,36.65
2023-01-13T08:40:41.559Z,32.72
2023-01-13T08:50:20.991Z,32.38
2023-01-13T08:52:47.844Z,35.75
2023-01-13T08:55:15.966Z,34.28
2023-01-13T08:57:44.089Z,31.98
2023-01-13T09:00:14.895Z,33.28
2023-01-13T09:02:41.770Z,33.40
2023-01-13T09:05:10.272Z,25.65
2023-01-13T09:07:55.983Z,23.52
2023-01-13T11:33:06.692Z,21.60
2023-01-13T11:38:53.774Z,20.58
2023-01-13T11:41:33.737Z,24.25
2023-01-13T11:44:15.161Z,18.60
2023-01-13T11:46:42.199Z,13.13
2023-01-13T11:49:26.871Z,17.65
2023-01-13T11:52:03.341Z,20.15
2023-01-13T11:54:40.404Z,23.70
2023-01-13T11:57:41.549Z,18.67
2023-01-13T12:00:44.896Z,13.18
2023-01-13T12:03:23.217Z,21.85
2023-01-13T12:06:13.312Z,19.77
2023-01-13T12:09:20.982Z,18.02
2023-01-13T12:11:59.397Z,17.33
2023-01-13T12:14:38.004Z,22.90
2023-01-13T12:17:16.228Z,16.02
2023-01-13T12:19:49.206Z,13.05
2023-01-13T12:22:24.244Z,18.02
2023-01-13T12:24:55.844Z,17.90
2023-01-13T12:27:31.986Z,12.95
2023-01-13T12:30:02.035Z,17.77
2023-01-13T12:32:35.293Z,18.13
2023-01-13T12:35:20.058Z,10.85
2023-01-13T12:37:56.926Z,17.20
2023-01-13T12:40:37.540Z,11.45
2023-01-13T12:43:15.064Z,18.40
2023-01-13T12:45:42.292Z,14.57
2023-01-13T12:48:46.141Z,17.38
2023-01-13T12:51:25.565Z,16.48
2023-01-13T12:53:55.371Z,15.40
2023-01-13T12:56:42.290Z,16.00
2023-01-13T12:59:42.463Z,13.60
2023-01-13T13:02:30.682Z,17.05
2023-01-13T13:05:00.093Z,11.00
2023-01-13T13:07:41.680Z,18.80
2023-01-13T13:10:18.215Z,9.55
2023-01-13T13:12:57.954Z,11.55
2023-01-13T13:15:27.868Z,10.82
2023-01-13T13:18:03.318Z,12.45
2023-01-13T13:20:56.549Z,13.38
2023-01-13T13:23:41.338Z,8.82
2023-01-13T13:26:26.077Z,18.13
2023-01-13T13:29:16.529Z,17.05
2023-01-13T13:32:05.418Z,11.13
2023-01-13T13:34:37.783Z,10.90
2023-01-13T13:37:21.332Z,15.05
2023-01-13T13:39:48.335Z,15.02
2023-01-13T13:42:22.471Z,14.25
2023-01-13T13:44:51.050Z,11.43
2023-01-13T13:47:18.095Z,11.45
2023-01-13T13:49:48.066Z,13.73
2023-01-13T13:52:21.556Z,17.05
2023-01-13T13:54:52.021Z,13.98
2023-01-13T13:57:27.098Z,11.37
2023-01-13T13:59:55.664Z,12.20
2023-01-13T14:02:29.213Z,15.43
2023-01-13T14:05:08.284Z,15.23
2023-01-13T14:07:43.103Z,16.10
2023-01-13T14:10:16.426Z,21.38
2023-01-13T14:12:45.938Z,14.00
2023-01-13T14:15:25.862Z,8.18
2023-01-13T14:17:52.930Z,15.88
2023-01-13T14:20:19.615Z,17.00
2023-01-13T14:22:47.105Z,17.52
2023-01-13T14:25:28.441Z,18.08
2023-01-13T14:27:58.978Z,13.48
2023-01-13T14:30:28.082Z,13.23
2023-01-13T14:32:57.363Z,20.05
2023-01-13T14:35:24.290Z,18.05
2023-01-13T14:37:51.341Z,14.18
2023-01-13T14:40:40.651Z,20.70
2023-01-13T14:43:13.273Z,16.52
2023-01-13T14:45:44.806Z,14.80
2023-01-13T14:48:14.542Z,14.85
2023-01-13T14:50:47.731Z,16.30
2023-01-13T14:53:37.212Z,11.02
2023-01-13T14:56:52.918Z,12.27
2023-01-13T14:59:40.503Z,12.27
2023-01-13T15:02:46.736Z,19.73
2023-01-13T15:05:31.904Z,12.27
2023-01-13T15:08:01.595Z,25.08
2023-01-13T15:10:33.652Z,12.57
2023-01-13T15:13:03.421Z,19.63
2023-01-13T15:15:34.316Z,24.38
2023-01-13T15:18:02.279Z,24.55
2023-01-13T15:20:30.834Z,16.98
2023-01-13T15:22:57.651Z,18.88
2023-01-13T15:25:31.611Z,14.38
2023-01-13T15:27:58.666Z,14.65
2023-01-13T15:30:27.739Z,15.43
2023-01-13T15:32:57.893Z,14.00
2023-01-13T15:35:29.147Z,18.20
2023-01-13T15:37:57.353Z,15.98
2023-01-13T15:40:26.367Z,14.68
2023-01-13T15:42:53.276Z,10.18
2023-01-13T15:45:22.889Z,13.38
2023-01-13T15:47:49.693Z,16.23
2023-01-13T15:50:18.559Z,11.50
2023-01-13T15:52:46.073Z,16.63
2023-01-13T15:55:12.892Z,14.82
2023-01-13T15:57:47.342Z,16.25
2023-01-13T16:00:16.594Z,12.80
2023-01-13T16:02:43.499Z,16.08
2023-01-13T16:05:11.036Z,17.17
2023-01-13T16:07:39.571Z,14.23
2023-01-13T16:10:17.232Z,18.58
2023-01-13T16:12:45.606Z,18.55
2023-01-13T16:15:16.353Z,10.25
2023-01-13T16:17:44.774Z,22.90
2023-01-13T16:20:16.013Z,19.33
2023-01-13T16:22:44.719Z,15.23
2023-01-13T16:25:17.547Z,16.48
2023-01-13T16:27:44.907Z,22.08
2023-01-13T16:30:21.995Z,10.75
2023-01-13T16:32:48.879Z,18.63
2023-01-13T16:35:15.717Z,16.70
2023-01-13T16:37:44.498Z,17.10
2023-01-13T16:40:21.537Z,13.93
2023-01-13T16:42:48.553Z,28.88
2023-01-13T16:45:15.379Z,17.23
2023-01-13T16:47:44.507Z,17.15
2023-01-13T16:50:23.201Z,13.07
2023-01-13T16:52:51.520Z,12.48
2023-01-13T16:55:18.353Z,18.02
2023-01-13T16:57:45.305Z,13.85
2023-01-13T17:00:13.604Z,16.33
2023-01-13T17:02:40.674Z,16.13
2023-01-13T17:05:11.870Z,21.38
2023-01-13T17:07:39.721Z,21.98
2023-01-13T17:10:08.744Z,18.75
2023-01-13T17:12:35.523Z,24.08
2023-01-13T17:15:02.306Z,24.73
2023-01-13T17:17:31.244Z,15.38
2023-01-13T17:19:57.967Z,19.42
2023-01-13T17:22:24.747Z,20.92
2023-01-13T17:24:52.127Z,17.85
2023-01-13T17:27:20.383Z,18.83
2023-01-13T17:29:47.171Z,26.83
2023-01-13T17:32:17.525Z,16.23
2023-01-13T17:34:46.115Z,19.17
2023-01-13T17:37:15.536Z,19.77
2023-01-13T17:39:45.219Z,23.50
2023-01-13T17:42:12.594Z,14.20
2023-01-13T17:44:41.140Z,20.27
2023-01-13T17:47:08.504Z,19.67
2023-01-13T17:49:35.420Z,23.88
2023-01-13T17:52:02.517Z,14.68
2023-01-13T17:54:29.376Z,19.55
2023-01-13T17:56:56.503Z,12.50
2023-01-13T17:59:23.436Z,17.80
2023-01-13T18:01:52.601Z,17.58
2023-01-13T18:04:21.892Z,22.40
2023-01-13T18:06:48.936Z,19.50
2023-01-13T18:09:16.367Z,17.33
2023-01-13T18:11:43.599Z,14.70
2023-01-13T18:14:10.901Z,21.77
2023-01-13T18:16:38.261Z,17.30
2023-01-13T18:19:06.730Z,30.15
2023-01-13T18:21:33.757Z,25.17
2023-01-13T18:24:00.513Z,21.02
2023-01-13T18:26:28.344Z,22.83
2023-01-13T18:28:55.410Z,27.25
2023-01-13T18:31:22.257Z,21.88
2023-01-13T18:33:49.170Z,15.57
2023-01-13T18:36:17.500Z,16.67
2023-01-13T18:38:44.400Z,18.52
2023-01-13T18:41:13.020Z,16.08
2023-01-13T18:43:40.122Z,9.18
2023-01-13T18:46:09.388Z,17.17
2023-01-13T18:48:36.182Z,18.42
2023-01-13T18:51:03.074Z,22.30
2023-01-13T18:53:31.277Z,25.63
2023-01-13T18:55:58.060Z,22.83
2023-01-13T18:58:25.455Z,16.90
2023-01-13T19:01:00.795Z,12.30
2023-01-13T19:03:30.225Z,16.63
2023-01-13T19:06:02.262Z,13.10
2023-01-13T19:08:29.154Z,12.85
2023-01-13T19:10:57.226Z,21.05
2023-01-13T19:13:26.280Z,22.27
2023-01-13T19:15:53.271Z,19.15
2023-01-13T19:18:20.473Z,20.92
2023-01-13T19:20:47.167Z,13.50
2023-01-13T19:23:13.955Z,19.88
2023-01-13T19:25:40.690Z,14.27
2023-01-13T19:28:08.853Z,15.43
2023-01-13T19:30:35.767Z,14.57
2023-01-13T19:33:02.660Z,12.63
2023-01-13T19:35:29.421Z,19.60
2023-01-13T19:37:56.185Z,16.23
2023-01-13T19:40:22.832Z,20.92
2023-01-13T19:42:49.659Z,18.50
2023-01-13T19:45:19.278Z,18.58
2023-01-13T19:47:46.103Z,16.73
2023-01-13T19:50:14.034Z,17.83
2023-01-13T19:52:41.395Z,22.42
2023-01-13T19:55:08.578Z,22.45
2023-01-13T19:57:35.452Z,25.30
2023-01-13T20:00:02.309Z,19.33
2023-01-13T20:02:30.582Z,7.03
2023-01-13T20:05:00.589Z,7.63
2023-01-13T20:07:30.099Z,2.78
2023-01-13T20:09:57.130Z,4.47
2023-01-13T20:12:24.627Z,4.97
2023-01-13T20:14:51.760Z,4.72
2023-01-13T20:17:20.276Z,6.97
2023-01-13T20:19:49.935Z,6.93
2023-01-13T20:22:16.733Z,11.73
2023-01-13T20:24:43.505Z,13.70
2023-01-13T20:27:10.528Z,17.65
2023-01-13T20:29:38.144Z,20.02
2023-01-13T20:32:05.461Z,9.35
2023-01-13T20:34:32.251Z,5.15
2023-01-13T20:37:01.038Z,5.75
2023-01-13T20:39:27.900Z,2.83
2023-01-13T20:41:54.991Z,5.00
2023-01-13T20:44:21.708Z,3.08
2023-01-13T20:46:48.486Z,5.50
2023-01-13T20:49:16.015Z,6.97
2023-01-13T20:51:42.985Z,8.30
2023-01-13T20:54:11.169Z,5.47
2023-01-13T20:56:38.060Z,4.93
2023-01-13T20:59:04.928Z,6.82
2023-01-13T21:01:32.201Z,3.88
2023-01-13T21:04:00.138Z,4.97
2023-01-13T21:06:27.752Z,5.00
2023-01-13T21:08:54.806Z,8.55
2023-01-13T21:11:25.007Z,6.03
2023-01-13T21:13:51.822Z,6.50
2023-01-13T21:16:18.833Z,9.05
2023-01-13T21:18:45.534Z,10.77
2023-01-13T21:21:12.585Z,10.05
2023-01-13T21:23:39.769Z,9.20
2023-01-13T21:26:07.382Z,16.48
2023-01-13T21:28:35.931Z,8.63
2023-01-13T21:31:03.777Z,12.00
2023-01-13T21:33:30.962Z,16.40
2023-01-13T21:35:57.740Z,17.00
2023-01-13T21:38:24.682Z,19.17
2023-01-13T21:41:00.764Z,7.40
2023-01-13T21:43:28.015Z,7.55
2023-01-13T21:45:56.152Z,2.67
2023-01-13T21:48:25.921Z,3.30
2023-01-13T21:50:52.658Z,2.08
2023-01-13T21:53:19.605Z,2.75
2023-01-13T21:55:50.635Z,1.95
2023-01-13T21:58:17.357Z,3.65
2023-01-13T22:00:45.284Z,4.25
2023-01-13T22:03:14.026Z,2.35
2023-01-13T22:06:09.913Z,4.07
2023-01-13T22:08:37.154Z,4.97
2023-01-13T22:11:04.500Z,8.35
2023-01-13T22:13:31.155Z,8.65
2023-01-13T22:16:02.672Z,10.80
2023-01-13T22:18:30.849Z,12.10
2023-01-13T22:21:00.334Z,6.32
2023-01-13T22:23:27.253Z,12.18
2023-01-13T22:26:00.738Z,7.88
2023-01-13T22:28:27.564Z,15.95
2023-01-13T22:30:54.262Z,19.65
2023-01-13T22:33:21.010Z,11.85
2023-01-13T22:35:55.785Z,21.35
2023-01-13T22:38:22.379Z,29.88
2023-01-13T22:40:56.009Z,21.90
2023-01-13T22:43:23.104Z,26.95
2023-01-13T22:45:56.533Z,23.52
2023-01-13T22:48:23.375Z,34.47
2023-01-13T22:50:50.330Z,24.52
2023-01-13T22:53:19.476Z,27.42
2023-01-13T22:55:53.924Z,28.73
2023-01-13T22:58:20.901Z,30.67
2023-01-13T23:00:47.843Z,30.38
2023-01-13T23:03:15.042Z,30.95
2023-01-13T23:05:43.449Z,28.65
2023-01-13T23:08:11.808Z,20.33
2023-01-13T23:10:41.157Z,26.10
2023-01-13T23:13:08.859Z,20.98
2023-01-13T23:15:36.031Z,20.52
2023-01-13T23:18:02.995Z,26.38
2023-01-13T23:20:30.302Z,27.42
2023-01-13T23:22:57.074Z,35.50
2023-01-13T23:25:23.788Z,23.25
2023-01-13T23:27:52.125Z,33.88
2023-01-13T23:30:19.074Z,26.40
2023-01-13T23:32:45.803Z,31.15
2023-01-13T23:35:12.502Z,27.48
2023-01-13T23:37:39.488Z,26.48
2023-01-13T23:40:10.085Z,31.60
2023-01-13T23:42:37.292Z,31.65
2023-01-13T23:45:06.692Z,32.53
2023-01-13T23:47:33.608Z,30.15
2023-01-13T23:50:00.405Z,34.83
2023-01-13T23:52:27.091Z,23.58
2023-01-13T23:54:53.780Z,23.60
2023-01-13T23:57:20.645Z,28.08
2023-01-13T23:59:47.354Z,31.38
